Time;durP1;ratioP1;P1;durP2;ratioP2;P2;SDS_P1;SDS_P2;PMS_P1;PMS_P2;Temp;Humidity;BMP_temperature;BMP_pressure;BME280_temperature;BME280_humidity;BME280_pressure;Samples;Min_cycle;Max_cycle;Signal;HPM_P1;HPM_P2
2021/12/03 00:00:05;;;;;;;45.35;25.67;;;;;;;16.12;50.12;101129.97;5063385;28;20351;-41
2021/12/03 00:02:32;;;;;;;43.67;26.25;;;;;;;16.12;50.53;101129.09;5060782;28;20053;-41
2021/12/03 00:04:58;;;;;;;47.15;26.42;;;;;;;16.10;49.77;101129.25;5063262;28;20048;-41
2021/12/03 00:07:25;;;;;;;42.47;24.50;;;;;;;16.09;50.80;101130.22;5060688;28;20048;-42
2021/12/03 00:09:52;;;;;;;40.53;24.17;;;;;;;16.09;50.05;101129.41;5062935;28;20049;-41
2021/12/03 00:12:18;;;;;;;42.72;23.85;;;;;;;16.08;50.57;101130.34;5061576;28;20054;-41
2021/12/03 00:14:45;;;;;;;37.88;22.05;;;;;;;16.07;50.05;101126.00;5063009;28;20048;-41
2021/12/03 00:17:11;;;;;;;38.00;22.75;;;;;;;16.05;50.84;101120.78;5063918;28;20135;-41
2021/12/03 00:19:38;;;;;;;37.20;21.33;;;;;;;16.04;50.53;101130.63;5063205;28;20136;-41
2021/12/03 00:22:04;;;;;;;36.75;20.48;;;;;;;16.05;50.15;101131.47;5063037;28;20048;-41
2021/12/03 00:24:31;;;;;;;34.78;20.88;;;;;;;16.03;50.16;101134.28;5065792;28;20058;-41
2021/12/03 00:26:57;;;;;;;33.88;19.58;;;;;;;16.02;50.31;101137.09;5061150;28;20067;-41
2021/12/03 00:29:24;;;;;;;32.78;19.80;;;;;;;16.02;49.96;101137.09;5061594;28;20107;-41
2021/12/03 00:31:50;;;;;;;29.40;17.73;;;;;;;16.02;50.19;101137.09;5062232;28;20679;-41
2021/12/03 00:34:17;;;;;;;30.63;18.05;;;;;;;16.00;50.97;101129.22;5066619;28;20053;-42
2021/12/03 00:36:44;;;;;;;31.63;17.73;;;;;;;15.99;50.43;101132.00;5066776;28;20036;-41
2021/12/03 00:39:10;;;;;;;28.70;16.63;;;;;;;15.97;51.21;101133.97;5064785;28;20049;-42
2021/12/03 00:41:45;;;;;;;30.98;17.38;;;;;;;15.97;50.14;101137.50;5064251;28;20411;-41
2021/12/03 00:44:12;;;;;;;29.42;16.02;;;;;;;15.96;50.54;101140.28;5062443;28;20124;-41
2021/12/03 00:46:39;;;;;;;28.13;15.73;;;;;;;15.96;50.92;101126.91;5064844;28;20485;-41
2021/12/03 00:49:06;;;;;;;24.98;15.00;;;;;;;15.95;50.74;101135.91;5063253;28;20131;-41
2021/12/03 00:51:32;;;;;;;26.60;15.02;;;;;;;15.94;51.15;101136.91;5069787;28;20132;-41
2021/12/03 00:54:02;;;;;;;24.25;13.80;;;;;;;15.93;50.83;101145.91;5066575;28;20049;-41
2021/12/03 00:56:29;;;;;;;24.63;14.98;;;;;;;15.93;50.30;101148.59;5070871;28;20126;-41
2021/12/03 00:58:55;;;;;;;26.05;14.20;;;;;;;15.92;50.39;101147.75;5064900;28;20436;-41
2021/12/03 01:01:22;;;;;;;25.38;14.40;;;;;;;15.91;50.96;101142.50;5064751;28;20053;-41
2021/12/03 01:03:49;;;;;;;23.10;13.80;;;;;;;15.91;50.24;101138.00;5065834;28;20110;-41
2021/12/03 01:06:16;;;;;;;23.90;13.70;;;;;;;15.91;51.21;101131.81;5061617;28;20439;-41
2021/12/03 01:08:43;;;;;;;20.15;12.85;;;;;;;15.89;50.95;101136.47;5059401;28;20053;-41
2021/12/03 01:11:11;;;;;;;25.02;13.88;;;;;;;15.88;50.35;101138.31;5067071;28;20140;-41
2021/12/03 01:13:40;;;;;;;18.42;11.13;;;;;;;15.88;50.60;101137.44;5065516;28;20094;-41
2021/12/03 01:16:09;;;;;;;20.38;12.23;;;;;;;15.87;51.27;101135.75;5065728;28;20373;-41
2021/12/03 01:18:37;;;;;;;21.20;11.30;;;;;;;15.86;51.20;101132.22;5066234;28;20483;-41
2021/12/03 01:21:05;;;;;;;18.05;10.85;;;;;;;15.86;50.73;101128.72;5066774;28;20144;-41
2021/12/03 01:23:32;;;;;;;19.42;11.45;;;;;;;15.84;51.22;101115.50;5062717;28;20136;-41
2021/12/03 01:25:59;;;;;;;19.08;11.52;;;;;;;15.83;50.57;101110.25;5049668;28;20060;-42
2021/12/03 01:28:27;;;;;;;17.60;10.52;;;;;;;15.82;51.35;101112.09;5066136;28;20045;-41
2021/12/03 01:30:55;;;;;;;17.88;10.80;;;;;;;15.82;50.96;101124.59;5065699;28;20123;-41
2021/12/03 01:33:22;;;;;;;17.65;10.55;;;;;;;15.81;50.58;101115.75;5064674;28;20170;-41
2021/12/03 01:35:48;;;;;;;16.77;9.75;;;;;;;15.81;50.47;101112.22;5064450;28;20048;-41
2021/12/03 01:38:16;;;;;;;16.35;9.82;;;;;;;15.81;50.71;101120.25;5067681;28;20056;-41
2021/12/03 01:40:42;;;;;;;16.17;9.80;;;;;;;15.79;50.60;101117.69;5065733;28;20305;-41
2021/12/03 01:43:13;;;;;;;16.23;8.95;;;;;;;15.78;50.45;101122.19;5063046;28;20048;-41
2021/12/03 01:45:40;;;;;;;17.50;9.55;;;;;;;15.79;50.41;101128.38;5063932;28;20397;-41
2021/12/03 01:48:07;;;;;;;15.63;9.13;;;;;;;15.78;51.57;101134.72;5065924;28;20126;-41
2021/12/03 01:50:39;;;;;;;14.15;7.80;;;;;;;15.76;51.40;101132.19;5060474;28;20048;-41
2021/12/03 01:53:07;;;;;;;15.48;9.18;;;;;;;15.78;51.42;101129.38;5068402;28;20045;-41
2021/12/03 01:55:36;;;;;;;14.50;8.18;;;;;;;15.77;51.49;101135.69;5065848;28;20578;-41
2021/12/03 01:58:04;;;;;;;14.50;7.53;;;;;;;15.76;50.99;101139.34;5055136;28;20052;-41
2021/12/03 02:00:39;;;;;;;14.20;8.18;;;;;;;15.74;51.37;101128.78;5059801;28;20683;-41
2021/12/03 02:03:08;;;;;;;15.32;8.15;;;;;;;15.74;50.79;101131.44;5066382;28;20052;-41
2021/12/03 02:05:36;;;;;;;14.05;8.00;;;;;;;15.74;51.08;101125.25;5063183;28;20427;-41
2021/12/03 02:08:03;;;;;;;11.93;7.55;;;;;;;15.73;50.46;101121.75;5066800;28;20123;-41
2021/12/03 02:10:30;;;;;;;14.25;7.28;;;;;;;15.71;50.57;101112.16;5064798;28;20148;-41
2021/12/03 02:12:57;;;;;;;11.88;6.65;;;;;;;15.72;51.55;101113.88;5061774;28;20171;-41
2021/12/03 02:15:23;;;;;;;11.38;6.90;;;;;;;15.72;50.37;101119.22;5063482;28;20350;-41
2021/12/03 02:17:50;;;;;;;11.48;6.00;;;;;;;15.69;50.95;101109.63;5063293;28;20041;-41
2021/12/03 02:20:17;;;;;;;14.60;7.68;;;;;;;15.69;50.51;101109.63;5066263;28;20135;-41
2021/12/03 02:22:45;;;;;;;12.45;6.85;;;;;;;15.68;51.24;101101.75;5061114;28;20354;-41
2021/12/03 02:25:20;;;;;;;10.88;6.10;;;;;;;15.66;50.51;101107.22;5065549;28;20056;-41
2021/12/03 02:27:49;;;;;;;8.85;5.55;;;;;;;15.66;51.13;101109.03;5066329;28;20135;-41
2021/12/03 02:30:17;;;;;;;9.95;5.72;;;;;;;15.67;50.63;101119.59;5065882;28;20135;-40
2021/12/03 02:32:44;;;;;;;9.88;5.95;;;;;;;15.65;51.14;101110.88;5060144;28;20097;-41
2021/12/03 02:35:10;;;;;;;9.88;5.78;;;;;;;15.64;50.59;101106.47;5065471;28;20048;-41
2021/12/03 02:37:37;;;;;;;10.02;5.50;;;;;;;15.62;50.14;101102.22;5067464;28;20580;-41
2021/12/03 02:40:05;;;;;;;9.13;5.07;;;;;;;15.62;50.48;101084.38;5065362;28;20370;-41
2021/12/03 02:42:33;;;;;;;10.15;5.47;;;;;;;15.61;50.84;101090.69;5061745;28;20151;-41
2021/12/03 02:44:59;;;;;;;8.40;4.88;;;;;;;15.61;51.66;101077.34;5062877;28;20525;-40
2021/12/03 02:47:26;;;;;;;8.25;4.53;;;;;;;15.61;51.42;101076.50;5064730;28;20048;-41
2021/12/03 02:49:52;;;;;;;8.27;4.55;;;;;;;15.60;51.06;101085.47;5064692;28;20468;-41
2021/12/03 02:52:19;;;;;;;6.72;4.47;;;;;;;15.59;50.52;101086.47;5062034;28;20080;-41
2021/12/03 02:54:45;;;;;;;9.82;4.78;;;;;;;15.59;51.04;101084.63;5064624;28;20053;-41
2021/12/03 02:57:12;;;;;;;8.73;4.97;;;;;;;15.57;50.75;101075.91;5063234;28;20044;-42
2021/12/03 02:59:39;;;;;;;8.98;5.05;;;;;;;15.57;51.12;101081.25;5065900;28;20063;-41
2021/12/03 03:02:05;;;;;;;8.13;4.00;;;;;;;15.56;51.34;101084.91;5063474;28;20048;-41
2021/12/03 03:04:50;;;;;;;8.07;4.20;;;;;;;15.55;51.37;101093.88;5064570;28;20110;-41
2021/12/03 03:07:19;;;;;;;7.60;4.50;;;;;;;15.54;50.62;101094.88;5065534;28;20131;-41
2021/12/03 03:09:46;;;;;;;7.05;4.10;;;;;;;15.53;51.46;101098.53;5060419;28;20076;-41
2021/12/03 03:12:13;;;;;;;7.32;4.15;;;;;;;15.52;50.73;101099.50;5063116;28;20050;-41
2021/12/03 03:14:47;;;;;;;6.75;4.20;;;;;;;15.51;51.00;101092.47;5063715;28;20140;-41
2021/12/03 03:17:13;;;;;;;6.03;3.80;;;;;;;15.51;51.48;101101.31;5065499;28;20131;-41
2021/12/03 03:19:40;;;;;;;7.38;3.45;;;;;;;15.51;51.42;101084.44;5060767;28;20139;-41
2021/12/03 03:22:07;;;;;;;6.20;3.38;;;;;;;15.50;51.48;101093.44;5064184;28;20070;-40
2021/12/03 03:24:34;;;;;;;7.70;3.78;;;;;;;15.49;50.65;101078.41;5076976;28;20063;-40
2021/12/03 03:27:01;;;;;;;6.85;3.90;;;;;;;15.51;50.90;101082.63;5062624;28;20040;-41
2021/12/03 03:29:28;;;;;;;6.03;3.60;;;;;;;15.54;51.49;101076.16;5066930;28;20125;-40
2021/12/03 03:31:55;;;;;;;6.05;3.65;;;;;;;15.59;50.91;101068.59;5066546;28;20076;-41
2021/12/03 03:34:21;;;;;;;6.40;3.28;;;;;;;15.67;51.33;101063.47;5064350;28;20049;-40
2021/12/03 03:36:48;;;;;;;6.28;3.13;;;;;;;15.74;50.60;101064.63;5064365;28;20436;-39
2021/12/03 03:39:15;;;;;;;7.80;2.90;;;;;;;15.82;50.62;101057.78;5060838;28;20067;-42
2021/12/03 03:41:42;;;;;;;5.97;3.30;;;;;;;15.91;51.29;101054.31;5062658;28;20062;-40
2021/12/03 03:44:10;;;;;;;4.63;3.00;;;;;;;15.97;50.56;101043.09;5062698;28;20052;-42
2021/12/03 03:46:38;;;;;;;4.88;2.92;;;;;;;16.06;50.18;101046.78;5064362;28;20048;-42
2021/12/03 03:49:05;;;;;;;5.47;3.03;;;;;;;16.12;50.88;101041.72;5062930;28;20040;-41
2021/12/03 03:51:32;;;;;;;4.30;2.80;;;;;;;16.17;50.49;101036.81;5062956;28;20045;-41
2021/12/03 03:53:59;;;;;;;4.90;2.75;;;;;;;16.22;50.23;101025.69;5060216;28;20061;-41
2021/12/03 03:56:27;;;;;;;6.65;2.78;;;;;;;16.26;49.63;101040.50;5066653;28;20128;-42
2021/12/03 03:58:54;;;;;;;5.15;2.40;;;;;;;16.29;50.31;101037.53;5060639;28;20048;-41
2021/12/03 04:01:21;;;;;;;5.72;2.58;;;;;;;16.33;50.26;101038.97;5060712;28;20052;-41
2021/12/03 04:03:48;;;;;;;6.85;2.58;;;;;;;16.35;50.16;101033.47;5062273;28;20057;-41
2021/12/03 04:06:17;;;;;;;5.28;2.28;;;;;;;16.38;49.25;101033.19;5060963;28;20475;-41
2021/12/03 04:08:45;;;;;;;5.40;2.38;;;;;;;16.40;49.96;101026.72;5068628;28;20588;-41
2021/12/03 04:11:13;;;;;;;6.47;2.67;;;;;;;16.41;49.70;101025.75;5063506;28;20049;-41
2021/12/03 04:13:39;;;;;;;5.28;2.53;;;;;;;16.41;49.76;101031.09;5068498;28;20051;-41
2021/12/03 04:16:06;;;;;;;4.72;2.47;;;;;;;16.42;49.30;101030.09;5064549;28;20044;-42
2021/12/03 04:18:33;;;;;;;4.55;2.25;;;;;;;16.43;49.24;101036.28;5067095;28;20056;-42
2021/12/03 04:20:59;;;;;;;4.38;2.72;;;;;;;16.43;49.03;101029.09;5068926;28;20045;-42
2021/12/03 04:23:26;;;;;;;4.25;2.10;;;;;;;16.42;49.73;101032.78;5071213;28;20052;-41
2021/12/03 04:25:53;;;;;;;3.72;2.00;;;;;;;16.42;49.06;101032.78;5063159;28;20131;-41
2021/12/03 04:28:20;;;;;;;4.22;2.05;;;;;;;16.41;49.34;101035.59;5067729;28;20051;-42
2021/12/03 04:30:49;;;;;;;4.03;2.05;;;;;;;16.39;49.06;101032.22;5049717;28;20044;-41
2021/12/03 04:33:17;;;;;;;3.95;2.30;;;;;;;16.38;49.45;101027.84;5065675;28;20555;-41
2021/12/03 04:35:44;;;;;;;4.85;2.33;;;;;;;16.35;49.09;101023.59;5064949;28;20068;-41
2021/12/03 04:38:10;;;;;;;2.58;1.90;;;;;;;16.35;49.00;101031.63;5065639;28;20083;-41
2021/12/03 04:40:41;;;;;;;3.17;1.60;;;;;;;16.35;49.90;101031.63;5063414;28;20630;-42
2021/12/03 04:43:08;;;;;;;2.90;1.55;;;;;;;16.36;49.56;101029.81;5066332;28;20160;-45
2021/12/03 04:45:35;;;;;;;3.22;2.03;;;;;;;16.40;49.01;101025.88;5067619;28;20054;-41
2021/12/03 04:48:03;;;;;;;4.05;1.70;;;;;;;16.44;49.82;101024.59;5064409;28;20115;-42
2021/12/03 04:50:34;;;;;;;3.50;1.55;;;;;;;16.50;48.79;101024.06;5067797;28;20076;-41
2021/12/03 04:53:01;;;;;;;3.00;1.70;;;;;;;16.57;49.02;101021.69;5066582;28;20386;-42
2021/12/03 04:55:27;;;;;;;2.70;1.48;;;;;;;16.62;48.52;101001.53;5066883;28;20058;-42
2021/12/03 04:57:54;;;;;;;4.38;1.63;;;;;;;16.70;48.57;101000.84;5063843;28;20068;-43
2021/12/03 05:00:25;;;;;;;3.88;1.85;;;;;;;16.76;48.34;101000.28;5068328;28;20050;-42
2021/12/03 05:02:53;;;;;;;3.13;1.52;;;;;;;16.82;49.08;100990.88;5063202;28;20045;-43
2021/12/03 05:05:23;;;;;;;4.10;1.48;;;;;;;16.86;48.07;100992.25;5068535;28;20068;-42
2021/12/03 05:08:08;;;;;;;4.00;1.48;;;;;;;16.90;47.93;100988.31;5060109;28;20045;-42
2021/12/03 05:10:37;;;;;;;10.02;5.13;;;;;;;16.94;48.64;100995.91;5068159;28;20143;-42
2021/12/03 05:13:13;;;;;;;5.97;3.00;;;;;;;16.99;47.80;100998.16;5066296;28;20063;-43
2021/12/03 05:15:41;;;;;;;7.60;3.60;;;;;;;17.01;47.92;100997.03;5068989;28;20127;-42
2021/12/03 05:18:10;;;;;;;7.18;4.80;;;;;;;17.04;47.93;100993.22;5060761;28;20131;-42
2021/12/03 05:20:36;;;;;;;10.80;4.43;;;;;;;17.07;47.72;100992.09;5067714;28;20131;-45
2021/12/03 05:23:03;;;;;;;9.52;4.75;;;;;;;17.08;48.42;100991.94;5065576;28;20145;-42
2021/12/03 05:25:32;;;;;;;10.30;5.32;;;;;;;17.08;48.12;100983.91;5072186;28;20041;-43
2021/12/03 05:28:00;;;;;;;14.13;5.78;;;;;;;17.08;48.31;100983.06;5065072;28;20147;-42
2021/12/03 05:30:26;;;;;;;11.05;5.50;;;;;;;17.07;47.82;100976.88;5067776;28;20048;-42
2021/12/03 05:32:54;;;;;;;12.05;5.95;;;;;;;17.03;48.16;100988.84;5061634;28;20048;-42
2021/12/03 05:35:21;;;;;;;14.23;7.05;;;;;;;17.01;47.72;100990.84;5063721;28;20052;-42
2021/12/03 05:37:47;;;;;;;17.70;6.72;;;;;;;16.98;48.26;100994.66;5066957;28;20074;-43
2021/12/03 05:40:15;;;;;;;18.80;8.02;;;;;;;16.94;47.88;100987.88;5060427;28;20049;-42
2021/12/03 05:42:44;;;;;;;15.48;6.78;;;;;;;16.92;48.05;100980.97;5064472;28;20127;-42
2021/12/03 05:45:17;;;;;;;15.73;6.97;;;;;;;16.88;48.06;100980.41;5065933;28;20127;-42
2021/12/03 05:47:44;;;;;;;20.20;9.70;;;;;;;16.85;48.68;100979.88;5065553;28;20080;-42
2021/12/03 05:50:12;;;;;;;24.23;11.93;;;;;;;16.81;48.25;100982.00;5069693;28;20044;-43
2021/12/03 05:52:39;;;;;;;24.98;12.18;;;;;;;16.78;48.14;100976.91;5067541;28;20143;-42
2021/12/03 05:55:07;;;;;;;26.63;12.43;;;;;;;16.73;49.31;100971.16;5062052;28;20133;-41
2021/12/03 05:57:34;;;;;;;26.33;13.32;;;;;;;16.72;48.29;100972.06;5063131;28;20052;-42
2021/12/03 06:00:02;;;;;;;29.35;14.52;;;;;;;16.68;48.87;100970.66;5061331;28;20382;-42
2021/12/03 06:02:28;;;;;;;30.05;13.90;;;;;;;16.65;48.64;100979.00;5062942;28;20057;-43
2021/12/03 06:04:55;;;;;;;37.22;16.90;;;;;;;16.62;49.02;100976.59;5066086;28;20431;-41
2021/12/03 06:07:22;;;;;;;38.90;19.05;;;;;;;16.59;49.02;100983.06;5065561;28;20162;-41
2021/12/03 06:09:48;;;;;;;36.53;19.08;;;;;;;16.56;48.33;100986.03;5064349;28;20058;-43
2021/12/03 06:12:15;;;;;;;40.75;19.92;;;;;;;16.54;49.17;100974.63;5064407;28;20064;-42
2021/12/03 06:14:43;;;;;;;38.65;20.38;;;;;;;16.49;48.48;100975.06;5060713;28;20155;-42
2021/12/03 06:17:12;;;;;;;40.25;21.67;;;;;;;16.47;48.68;100979.69;5065524;28;20389;-41
2021/12/03 06:19:40;;;;;;;41.63;21.35;;;;;;;16.44;48.87;100977.31;5060882;28;20051;-41
2021/12/03 06:22:07;;;;;;;45.95;23.70;;;;;;;16.42;49.23;100965.91;5061021;28;20175;-42
2021/12/03 06:24:34;;;;;;;46.17;24.30;;;;;;;16.40;48.34;100975.03;5065099;28;20056;-41
2021/12/03 06:27:00;;;;;;;48.40;24.13;;;;;;;16.37;48.46;100976.19;5063422;28;20114;-41
2021/12/03 06:29:27;;;;;;;48.17;25.25;;;;;;;16.34;49.37;100976.44;5065542;28;20631;-41
2021/12/03 06:31:54;;;;;;;49.30;25.05;;;;;;;16.31;49.31;100984.75;5064068;28;20054;-40
2021/12/03 06:34:20;;;;;;;49.38;25.27;;;;;;;16.27;48.64;100986.84;5064712;28;20083;-40
2021/12/03 06:36:47;;;;;;;47.63;24.33;;;;;;;16.24;48.63;100981.81;5059753;28;20131;-41
2021/12/03 06:39:13;;;;;;;49.78;25.50;;;;;;;16.22;48.38;100973.06;5065920;28;20044;-40
2021/12/03 06:41:40;;;;;;;47.70;25.55;;;;;;;16.19;49.06;100972.47;5057859;28;20079;-40
2021/12/03 06:44:08;;;;;;;47.30;25.95;;;;;;;16.17;49.85;100977.97;5067190;28;20136;-40
2021/12/03 06:46:36;;;;;;;47.55;25.67;;;;;;;16.16;49.59;100975.44;5058351;28;20053;-40
2021/12/03 06:49:03;;;;;;;51.35;26.45;;;;;;;16.13;49.79;100973.06;5063462;28;20065;-40
2021/12/03 06:51:31;;;;;;;52.85;25.75;;;;;;;16.11;49.02;100965.16;5064857;28;20401;-40
2021/12/03 06:53:59;;;;;;;49.38;25.60;;;;;;;16.10;49.34;100957.28;5064496;28;20124;-41
2021/12/03 06:56:33;;;;;;;47.38;24.08;;;;;;;16.09;49.55;100950.25;5064990;28;20155;-41
2021/12/03 06:59:00;;;;;;;50.55;25.27;;;;;;;16.06;49.85;100946.00;5069347;28;20059;-40
2021/12/03 07:01:26;;;;;;;48.67;25.35;;;;;;;16.04;49.31;100953.34;5065992;28;20085;-40
2021/12/03 07:03:53;;;;;;;50.13;24.27;;;;;;;16.02;50.04;100958.81;5059421;28;20056;-41
2021/12/03 07:06:20;;;;;;;48.63;23.13;;;;;;;16.02;49.07;100961.47;5066747;28;20147;-41
2021/12/03 07:08:46;;;;;;;43.95;23.58;;;;;;;16.01;49.01;100958.97;5063355;28;20421;-41
2021/12/03 07:11:13;;;;;;;45.53;22.55;;;;;;;15.98;49.40;100957.41;5062763;28;20051;-41
2021/12/03 07:13:39;;;;;;;45.10;23.80;;;;;;;15.98;49.68;100959.22;5064969;28;20055;-41
2021/12/03 07:16:06;;;;;;;41.10;21.88;;;;;;;15.96;49.44;100950.47;5062066;28;20143;-41
2021/12/03 07:18:33;;;;;;;38.83;20.70;;;;;;;15.95;49.69;100962.16;5060356;28;20049;-41
2021/12/03 07:21:00;;;;;;;42.90;22.00;;;;;;;15.94;50.13;100963.16;5064176;28;20048;-41
2021/12/03 07:23:26;;;;;;;38.10;19.40;;;;;;;15.92;48.74;100952.63;5063901;28;20132;-41
2021/12/03 07:25:53;;;;;;;37.45;18.65;;;;;;;15.91;49.96;100958.06;5063119;28;20052;-41
2021/12/03 07:28:20;;;;;;;38.13;19.73;;;;;;;15.89;48.91;100954.72;5060440;28;20052;-41
2021/12/03 07:30:46;;;;;;;36.35;20.10;;;;;;;15.87;50.09;100952.16;5063545;28;20132;-41
2021/12/03 07:33:16;;;;;;;32.53;17.13;;;;;;;15.87;49.52;100948.63;5063085;28;20102;-41
2021/12/03 07:35:45;;;;;;;36.15;18.15;;;;;;;15.86;49.37;100947.78;5066802;28;20040;-41
2021/12/03 07:38:17;;;;;;;34.45;17.25;;;;;;;15.84;49.12;100943.56;5060369;28;20103;-41
2021/12/03 07:40:46;;;;;;;32.50;16.50;;;;;;;15.81;49.39;100939.34;5065868;28;20156;-41
2021/12/03 07:43:12;;;;;;;33.15;16.77;;;;;;;15.82;49.53;100942.88;5060478;28;20049;-41
2021/12/03 07:45:39;;;;;;;31.70;15.80;;;;;;;15.79;49.84;100939.47;5069471;28;20049;-41
2021/12/03 07:48:06;;;;;;;31.52;16.20;;;;;;;15.79;49.67;100939.47;5067305;28;20123;-41
2021/12/03 07:50:35;;;;;;;32.15;16.17;;;;;;;15.78;49.88;100947.63;5070794;28;20132;-41
2021/12/03 07:53:03;;;;;;;32.90;15.85;;;;;;;15.76;50.03;100936.25;5067555;28;20139;-40
2021/12/03 07:55:30;;;;;;;30.27;14.90;;;;;;;15.75;49.11;100929.19;5071065;28;20110;-41
2021/12/03 07:58:01;;;;;;;31.13;14.98;;;;;;;15.73;49.57;100929.34;5066854;28;20453;-40
2021/12/03 08:00:28;;;;;;;24.02;12.85;;;;;;;15.73;49.90;100932.00;5071566;28;20105;-41
2021/12/03 08:03:13;;;;;;;25.92;13.27;;;;;;;15.71;48.85;100927.78;5068217;28;20048;-40
2021/12/03 08:05:40;;;;;;;28.42;13.65;;;;;;;15.70;49.38;100920.75;5067168;28;20105;-41
2021/12/03 08:08:07;;;;;;;33.13;15.95;;;;;;;15.67;50.08;100927.19;5069086;28;20048;-40
2021/12/03 08:10:34;;;;;;;31.00;15.50;;;;;;;15.67;50.23;100931.69;5066458;28;20644;-40
2021/12/03 08:13:02;;;;;;;34.78;17.80;;;;;;;15.64;50.37;100922.13;5066020;28;20152;-41
2021/12/03 08:15:30;;;;;;;33.97;17.30;;;;;;;15.63;49.62;100923.09;5060941;28;20120;-40
2021/12/03 08:17:56;;;;;;;34.08;16.48;;;;;;;15.62;49.00;100924.06;5053080;28;20127;-40
2021/12/03 08:20:23;;;;;;;37.63;17.88;;;;;;;15.61;49.83;100919.72;5066192;28;20624;-40
2021/12/03 08:22:50;;;;;;;36.35;18.63;;;;;;;15.59;49.06;100920.81;5071613;28;20048;-39
2021/12/03 08:25:16;;;;;;;37.38;19.13;;;;;;;15.59;50.22;100912.81;5063496;28;20124;-39
2021/12/03 08:27:44;;;;;;;40.42;18.80;;;;;;;15.58;49.71;100911.13;5072790;28;20044;-40
2021/12/03 08:30:13;;;;;;;38.80;18.75;;;;;;;15.55;49.09;100897.03;5067927;28;20043;-39
2021/12/03 08:32:42;;;;;;;37.25;19.20;;;;;;;15.55;49.39;100896.19;5066684;28;20414;-40
2021/12/03 08:35:10;;;;;;;37.25;18.90;;;;;;;15.53;49.67;100896.34;5063690;28;20049;-40
2021/12/03 08:37:43;;;;;;;41.65;20.40;;;;;;;15.52;50.24;100896.50;5056674;28;20098;-40
2021/12/03 08:40:10;;;;;;;39.85;19.45;;;;;;;15.52;49.25;100894.66;5068339;28;20075;-40
2021/12/03 08:42:37;;;;;;;37.08;18.48;;;;;;;15.52;49.02;100888.47;5069052;28;20124;-40
2021/12/03 08:45:04;;;;;;;39.70;20.15;;;;;;;15.50;49.38;100875.25;5065731;28;20079;-40
2021/12/03 08:47:33;;;;;;;39.83;18.50;;;;;;;15.49;49.55;100880.72;5069197;28;20084;-40
2021/12/03 08:50:01;;;;;;;34.03;17.73;;;;;;;15.49;49.33;100878.06;5051208;28;20136;-40
2021/12/03 08:54:55;;;;;;;33.88;17.88;;;;;;;15.46;49.78;100881.84;5065713;28;20470;-40
2021/12/03 08:57:25;;;;;;;35.30;18.02;;;;;;;15.46;49.97;100878.31;5065453;28;20052;-40
2021/12/03 08:59:55;;;;;;;35.80;18.33;;;;;;;15.45;49.58;100880.16;5066140;28;20433;-40
2021/12/03 09:02:22;;;;;;;37.38;18.85;;;;;;;15.45;50.31;100877.47;5067891;28;20139;-40
2021/12/03 09:04:49;;;;;;;35.83;17.48;;;;;;;15.45;49.97;100879.31;5070277;28;20056;-40
2021/12/03 09:07:16;;;;;;;36.13;17.05;;;;;;;15.43;49.72;100874.09;5063427;28;20128;-40
2021/12/03 09:09:43;;;;;;;36.15;17.15;;;;;;;15.44;50.12;100870.47;5069851;28;20061;-40
2021/12/03 09:12:11;;;;;;;31.15;15.73;;;;;;;15.44;49.66;100869.63;5062256;28;20440;-40
2021/12/03 09:14:41;;;;;;;35.45;16.65;;;;;;;15.43;49.63;100865.22;5067963;28;20075;-40
2021/12/03 09:19:56;;;;;;;;;;;;;;;15.42;49.60;100859.06;5066543;28;20055;-39
2021/12/03 09:22:59;;;;;;;39.92;20.15;;;;;;;15.45;49.19;100857.94;5065909;28;19938;-40
2021/12/03 09:25:21;;;;;;;40.15;19.98;;;;;;;15.45;49.64;100857.94;5064225;28;20078;-40
2021/12/03 09:27:48;;;;;;;42.08;20.50;;;;;;;15.44;49.52;100856.25;5063634;28;20052;-40
2021/12/03 09:30:16;;;;;;;40.33;20.63;;;;;;;15.43;50.39;100857.22;5061789;28;20079;-40
2021/12/03 09:32:49;;;;;;;40.97;21.00;;;;;;;15.42;49.39;100855.53;5062754;28;20391;-40
2021/12/03 09:35:15;;;;;;;42.33;21.33;;;;;;;15.42;49.95;100853.72;5069891;28;20351;-41
2021/12/03 09:37:42;;;;;;;42.90;21.48;;;;;;;15.43;49.61;100851.88;5067772;28;20052;-41
2021/12/03 09:40:10;;;;;;;38.13;19.60;;;;;;;15.41;49.71;100843.19;5065475;28;20105;-40
2021/12/03 09:42:39;;;;;;;62.40;31.20;;;;;;;15.42;49.85;100839.50;5063655;28;20051;-40
2021/12/03 09:45:08;;;;;;;93.18;48.78;;;;;;;15.41;49.57;100835.16;5059531;28;20052;-40
2021/12/03 09:47:35;;;;;;;96.80;48.88;;;;;;;15.40;49.77;100831.66;5063825;28;20479;-41
2021/12/03 09:50:07;;;;;;;95.10;48.60;;;;;;;15.39;50.22;100829.94;5062113;28;20053;-40
2021/12/03 09:52:50;;;;;;;92.35;46.35;;;;;;;15.39;50.28;100829.94;5066365;28;20052;-40
2021/12/03 09:55:17;;;;;;;99.28;50.35;;;;;;;15.40;49.56;100817.47;5061647;28;20084;-40
2021/12/03 09:58:02;;;;;;;97.18;49.72;;;;;;;15.38;50.24;100822.91;5071679;28;20163;-40
2021/12/03 10:00:46;;;;;;;99.80;51.08;;;;;;;15.38;49.95;100817.56;5063995;28;20116;-40
2021/12/03 10:15:09;;;;;;;101.68;52.30;;;;;;;15.35;49.99;100807.16;5059403;28;19967;-40
2021/12/03 10:31:01;;;;;;;85.45;42.80;;;;;;;15.70;48.35;100782.66;5062875;28;20043;-41
2021/12/03 10:36:40;;;;;;;83.47;41.22;;;;;;;15.93;47.95;100761.00;5066687;28;20051;-42
2021/12/03 10:50:43;;;;;;;65.53;32.55;;;;;;;16.36;47.54;100733.75;5065484;28;20047;-41
2021/12/03 10:55:48;;;;;;;62.13;32.15;;;;;;;16.48;46.57;100719.22;5059933;28;20072;-41
2021/12/03 11:36:15;;;;;;;52.25;28.08;;;;;;;17.09;45.69;100645.53;5066889;28;20135;-45
2021/12/03 12:36:09;;;;;;;37.45;20.17;;;;;;;17.49;44.75;100540.53;5067185;28;20156;-43
2021/12/03 13:07:50;;;;;;;32.40;17.45;;;;;;;17.66;44.31;100513.84;5068034;28;20467;-43
2021/12/03 13:21:11;;;;;;;29.40;17.40;;;;;;;17.71;44.92;100501.63;5067618;28;20059;-43
2021/12/03 14:38:31;;;;;;;23.38;12.30;;;;;;;17.81;44.36;100479.25;5060471;28;20127;-42
2021/12/03 14:43:42;;;;;;;22.75;12.65;;;;;;;17.76;44.46;100477.06;5060921;28;20348;-43
2021/12/03 14:48:50;;;;;;;21.45;11.30;;;;;;;17.73;44.59;100486.25;5065063;28;20055;-42
2021/12/03 14:57:36;;;;;;;20.08;11.45;;;;;;;17.67;44.28;100454.72;5066281;28;20094;-42
2021/12/03 15:00:17;;;;;;;19.63;9.55;;;;;;;17.67;44.85;100452.03;5069583;28;20175;-42
2021/12/03 15:08:29;;;;;;;18.10;9.55;;;;;;;17.65;44.52;100443.31;5057699;28;20136;-42
2021/12/03 15:19:10;;;;;;;21.73;11.15;;;;;;;17.64;44.42;100433.59;5056886;28;20116;-43
2021/12/03 15:21:58;;;;;;;17.38;9.50;;;;;;;17.65;44.43;100431.75;5060006;28;20132;-43
2021/12/03 15:24:39;;;;;;;20.90;11.85;;;;;;;17.63;44.73;100434.59;5061904;28;20111;-42
2021/12/03 15:37:56;;;;;;;18.33;10.47;;;;;;;17.56;44.41;100430.88;5060983;28;20142;-43
2021/12/03 15:57:03;;;;;;;16.27;9.35;;;;;;;17.63;44.65;100409.63;5025334;28;20102;-42
2021/12/03 16:18:36;;;;;;;14.13;7.72;;;;;;;17.69;44.77;100375.00;5062124;28;20453;-42
2021/12/03 16:53:11;;;;;;;19.85;11.73;;;;;;;17.52;44.88;100363.34;5065381;28;20521;-42
2021/12/03 16:55:38;;;;;;;20.17;12.13;;;;;;;17.53;44.79;100380.31;5068883;28;20051;-43
2021/12/03 16:58:05;;;;;;;19.55;11.30;;;;;;;17.51;45.07;100379.59;5065744;28;20148;-42
2021/12/03 17:00:41;;;;;;;18.83;11.15;;;;;;;17.51;44.61;100371.56;5067229;28;20044;-43
2021/12/03 17:03:21;;;;;;;20.42;12.75;;;;;;;17.49;45.16;100371.75;5051222;28;20159;-43
2021/12/03 17:08:51;;;;;;;21.83;12.55;;;;;;;17.48;45.21;100371.88;5068229;28;20339;-41
2021/12/03 17:13:59;;;;;;;21.52;12.38;;;;;;;17.43;45.30;100364.34;5066689;28;20131;-42
2021/12/03 17:51:25;;;;;;;36.00;21.05;;;;;;;17.63;45.48;100303.28;5066298;28;20369;-42
2021/12/03 17:56:23;;;;;;;39.80;21.42;;;;;;;17.68;45.29;100302.78;5060764;28;20399;-41
2021/12/03 17:58:54;;;;;;;38.65;21.85;;;;;;;17.69;45.84;100315.19;5057986;28;20052;-42
2021/12/03 18:01:27;;;;;;;44.03;23.70;;;;;;;17.70;45.28;100320.38;5061328;28;20430;-42
2021/12/03 18:09:26;;;;;;;42.97;22.02;;;;;;;17.75;45.46;100312.72;5059297;28;20076;-42